createdAt,value
2023-02-12T00:02:20.437Z,16.83
2023-02-12T00:04:47.500Z,19.80
2023-02-12T00:07:13.818Z,15.73
2023-02-12T00:09:40.182Z,18.77
2023-02-12T00:12:06.643Z,15.70
2023-02-12T00:14:34.551Z,15.87
2023-02-12T00:17:00.889Z,19.07
2023-02-12T00:19:27.185Z,29.00
2023-02-12T00:21:53.484Z,13.97
2023-02-12T00:24:19.772Z,15.23
2023-02-12T00:26:48.065Z,16.47
2023-02-12T00:29:14.542Z,21.17
2023-02-12T00:31:40.931Z,16.10
2023-02-12T00:34:07.411Z,16.03
2023-02-12T00:36:33.832Z,18.57
2023-02-12T00:39:00.501Z,16.47
2023-02-12T00:41:26.982Z,17.77
2023-02-12T00:43:53.314Z,17.90
2023-02-12T00:46:19.768Z,16.97
2023-02-12T00:48:46.102Z,15.80
2023-02-12T00:51:12.541Z,17.57
2023-02-12T00:53:38.875Z,14.37
2023-02-12T00:56:05.294Z,17.47
2023-02-12T00:58:31.593Z,18.90
2023-02-12T01:00:57.982Z,15.77
2023-02-12T01:03:24.587Z,20.87
2023-02-12T01:05:50.971Z,16.83
2023-02-12T01:08:17.318Z,18.83
2023-02-12T01:10:44.282Z,17.97
2023-02-12T01:13:12.958Z,16.67
2023-02-12T01:15:39.655Z,18.83
2023-02-12T01:18:05.968Z,17.93
2023-02-12T01:20:32.341Z,18.33
2023-02-12T01:22:58.668Z,18.73
2023-02-12T01:25:24.965Z,16.90
2023-02-12T01:27:53.137Z,18.70
2023-02-12T01:30:22.124Z,15.60
2023-02-12T01:32:48.465Z,17.00
2023-02-12T01:35:14.769Z,16.60
2023-02-12T01:37:41.337Z,19.37
2023-02-12T01:40:08.188Z,20.80
2023-02-12T01:42:34.492Z,19.13
2023-02-12T01:45:13.017Z,20.90
2023-02-12T01:47:40.012Z,21.40
2023-02-12T01:50:07.356Z,16.77
2023-02-12T01:52:36.002Z,20.23
2023-02-12T01:55:03.977Z,18.70
2023-02-12T01:57:32.313Z,16.23
2023-02-12T02:00:00.294Z,17.30
2023-02-12T02:02:26.764Z,20.93
2023-02-12T02:04:59.399Z,16.13
2023-02-12T02:07:25.930Z,18.20
2023-02-12T02:09:52.770Z,18.30
2023-02-12T02:12:37.444Z,17.90
2023-02-12T02:15:04.602Z,18.73
2023-02-12T02:17:49.609Z,18.67
2023-02-12T02:20:25.844Z,17.15
2023-02-12T02:23:09.768Z,18.63
2023-02-12T02:25:55.088Z,22.37
2023-02-12T02:28:27.511Z,23.00
2023-02-12T02:30:56.915Z,18.80
2023-02-12T02:33:41.826Z,20.60
2023-02-12T02:36:10.973Z,17.83
2023-02-12T02:38:37.252Z,17.80
2023-02-12T02:41:06.780Z,17.23
2023-02-12T02:43:41.062Z,18.33
2023-02-12T02:46:10.233Z,16.10
2023-02-12T02:48:38.727Z,16.30
2023-02-12T02:51:07.898Z,14.70
2023-02-12T02:53:37.513Z,16.00
2023-02-12T02:56:06.499Z,15.93
2023-02-12T02:58:36.303Z,15.97
2023-02-12T03:01:19.186Z,16.60
2023-02-12T03:03:54.975Z,15.00
2023-02-12T03:06:27.277Z,17.50
2023-02-12T03:08:56.341Z,14.37
2023-02-12T03:11:27.685Z,15.80
2023-02-12T03:14:20.471Z,16.40
2023-02-12T03:16:51.457Z,18.73
2023-02-12T03:19:20.202Z,24.90
2023-02-12T03:21:49.132Z,17.23
2023-02-12T03:24:18.902Z,18.27
2023-02-12T03:27:11.277Z,19.10
2023-02-12T03:29:37.667Z,20.53
2023-02-12T03:32:24.483Z,16.33
2023-02-12T03:34:54.936Z,18.00
2023-02-12T03:37:25.116Z,16.70
2023-02-12T03:39:57.260Z,14.60
2023-02-12T03:42:26.441Z,15.90
2023-02-12T03:44:58.225Z,15.77
2023-02-12T03:47:33.505Z,20.57
2023-02-12T03:52:26.957Z,24.10
2023-02-12T03:54:53.322Z,20.47
2023-02-12T03:57:21.723Z,16.67
2023-02-12T03:59:48.319Z,21.67
2023-02-12T04:02:15.923Z,17.97
2023-02-12T04:04:43.374Z,16.33
2023-02-12T04:07:10.293Z,17.97
2023-02-12T04:09:36.617Z,18.83
2023-02-12T04:12:02.932Z,16.33
2023-02-12T04:14:34.872Z,18.67
2023-02-12T04:17:16.356Z,16.67
2023-02-12T04:19:48.949Z,20.67
2023-02-12T04:22:23.547Z,20.03
2023-02-12T04:24:55.878Z,18.90
2023-02-12T04:27:37.320Z,20.73
2023-02-12T04:30:22.608Z,19.10
2023-02-12T04:32:52.130Z,22.33
2023-02-12T04:35:31.460Z,17.63
2023-02-12T04:38:12.928Z,19.07
2023-02-12T04:40:40.226Z,18.73
2023-02-12T04:43:06.805Z,17.23
2023-02-12T04:45:34.900Z,14.93
2023-02-12T04:48:01.553Z,17.27
2023-02-12T04:50:29.233Z,17.23
2023-02-12T04:52:55.544Z,20.70
2023-02-12T04:55:21.841Z,16.70
2023-02-12T04:57:48.187Z,16.57
2023-02-12T05:00:15.132Z,20.07
2023-02-12T05:02:41.545Z,15.73
2023-02-12T05:05:08.146Z,17.93
2023-02-12T05:07:34.520Z,18.43
2023-02-12T05:10:00.913Z,13.97
2023-02-12T05:12:27.235Z,16.53
2023-02-12T05:14:53.590Z,14.20
2023-02-12T05:17:21.896Z,14.93
2023-02-12T05:19:48.245Z,15.57
2023-02-12T05:22:14.577Z,15.30
2023-02-12T05:24:40.906Z,13.00
2023-02-12T05:27:09.041Z,16.57
2023-02-12T05:29:35.856Z,18.23
2023-02-12T05:32:02.428Z,15.83
2023-02-12T05:34:28.865Z,16.50
2023-02-12T05:36:55.231Z,17.00
2023-02-12T05:39:21.770Z,16.23
2023-02-12T05:41:48.061Z,13.67
2023-02-12T05:44:15.207Z,15.67
2023-02-12T05:46:42.031Z,13.30
2023-02-12T05:49:08.736Z,13.17
2023-02-12T05:51:35.382Z,17.20
2023-02-12T05:54:03.723Z,16.67
2023-02-12T05:56:34.165Z,15.47
2023-02-12T05:59:03.377Z,15.73
2023-02-12T06:01:31.303Z,16.60
2023-02-12T06:03:58.597Z,15.87
2023-02-12T06:06:26.019Z,18.73
2023-02-12T06:08:52.424Z,16.67
2023-02-12T06:11:19.397Z,15.27
2023-02-12T06:13:45.829Z,15.43
2023-02-12T06:16:19.653Z,15.07
2023-02-12T06:18:46.102Z,27.30
2023-02-12T06:21:12.566Z,15.23
2023-02-12T06:23:39.170Z,15.23
2023-02-12T06:26:05.468Z,14.63
2023-02-12T06:28:31.932Z,15.27
2023-02-12T06:30:58.474Z,16.43
2023-02-12T06:33:24.853Z,17.40
2023-02-12T06:35:51.194Z,15.43
2023-02-12T06:38:17.592Z,14.83
2023-02-12T06:40:44.009Z,15.03
2023-02-12T06:43:10.434Z,15.57
2023-02-12T06:45:36.941Z,12.87
2023-02-12T06:48:03.259Z,15.17
2023-02-12T06:50:29.684Z,15.33
2023-02-12T06:52:56.005Z,17.00
2023-02-12T06:55:22.433Z,13.93
2023-02-12T06:57:48.811Z,16.20
2023-02-12T07:00:15.254Z,11.53
2023-02-12T07:02:41.564Z,12.17
2023-02-12T07:05:07.983Z,12.80
2023-02-12T07:07:34.398Z,11.63
2023-02-12T07:10:00.845Z,12.90
2023-02-12T07:12:27.196Z,12.40
2023-02-12T07:14:53.531Z,15.70
2023-02-12T07:17:19.876Z,11.43
2023-02-12T07:19:46.185Z,12.73
2023-02-12T07:22:12.488Z,13.50
2023-02-12T07:24:39.326Z,12.07
2023-02-12T07:27:05.633Z,13.00
2023-02-12T07:29:32.036Z,20.10
2023-02-12T07:31:58.359Z,46.77
2023-02-12T07:34:24.766Z,19.67
2023-02-12T07:36:51.090Z,19.67
2023-02-12T07:39:17.384Z,22.50
2023-02-12T07:41:43.712Z,19.97
2023-02-12T07:44:11.324Z,19.20
2023-02-12T07:46:37.606Z,20.17
2023-02-12T07:49:05.398Z,27.53
2023-02-12T07:51:33.057Z,20.63
2023-02-12T07:54:01.117Z,20.33
2023-02-12T07:56:30.986Z,17.50
2023-02-12T07:58:58.269Z,18.80
2023-02-12T08:01:29.405Z,19.20
2023-02-12T08:04:00.445Z,15.63
2023-02-12T08:06:28.445Z,17.33
2023-02-12T08:08:55.586Z,18.00
2023-02-12T08:11:22.533Z,16.63
2023-02-12T08:13:48.885Z,21.47
2023-02-12T08:16:16.758Z,17.23
2023-02-12T08:18:43.605Z,19.03
2023-02-12T08:21:18.105Z,16.83
2023-02-12T08:23:44.807Z,20.98
2023-02-12T08:26:15.355Z,18.03
2023-02-12T08:28:43.327Z,19.87
2023-02-12T08:31:14.154Z,21.23
2023-02-12T08:33:40.477Z,16.93
2023-02-12T08:36:11.481Z,19.27
2023-02-12T08:38:38.384Z,18.87
2023-02-12T08:41:06.631Z,23.50
2023-02-12T08:43:33.298Z,24.40
2023-02-12T08:46:03.435Z,18.00
2023-02-12T08:48:29.829Z,24.03
2023-02-12T08:50:56.182Z,22.60
2023-02-12T08:53:22.501Z,21.47
2023-02-12T08:55:51.857Z,21.50
2023-02-12T08:58:18.189Z,26.80
2023-02-12T09:00:44.535Z,21.03
2023-02-12T09:03:10.876Z,28.20
2023-02-12T09:05:38.673Z,22.60
2023-02-12T09:08:04.960Z,27.10
2023-02-12T09:10:31.288Z,23.90
2023-02-12T09:12:57.585Z,22.87
2023-02-12T09:15:23.879Z,20.33
2023-02-12T09:17:50.173Z,21.27
2023-02-12T09:20:16.649Z,22.67
2023-02-12T09:22:42.949Z,18.50
2023-02-12T09:25:09.290Z,19.47
2023-02-12T09:27:35.606Z,22.67
2023-02-12T09:30:01.959Z,18.37
2023-02-12T09:32:28.256Z,19.40
2023-02-12T09:34:54.558Z,20.70
2023-02-12T09:37:20.859Z,21.83
2023-02-12T09:39:49.027Z,23.67
2023-02-12T09:42:26.371Z,22.00
2023-02-12T09:45:01.208Z,26.67
2023-02-12T09:47:41.102Z,26.42
2023-02-12T09:50:23.693Z,34.63
2023-02-12T09:52:50.780Z,38.50
2023-02-12T09:55:18.166Z,31.97
2023-02-12T09:57:44.789Z,37.40
2023-02-12T10:00:11.395Z,35.10
2023-02-12T10:02:39.272Z,30.47
2023-02-12T10:05:11.839Z,31.83
2023-02-12T10:07:50.468Z,28.07
2023-02-12T10:10:16.771Z,28.43
2023-02-12T10:12:50.157Z,30.60
2023-02-12T10:15:27.327Z,39.07
2023-02-12T10:18:06.901Z,33.70
2023-02-12T10:20:41.527Z,37.50
2023-02-12T10:23:26.855Z,37.53
2023-02-12T10:25:58.276Z,40.63
2023-02-12T10:28:27.640Z,27.10
2023-02-12T10:30:54.117Z,26.67
2023-02-12T10:33:26.262Z,27.70
2023-02-12T10:36:07.865Z,26.50
2023-02-12T10:38:36.320Z,23.07
2023-02-12T10:41:02.852Z,22.90
2023-02-12T10:43:29.336Z,24.67
2023-02-12T10:45:55.923Z,31.20
2023-02-12T10:48:41.989Z,23.10
2023-02-12T10:51:08.343Z,27.43
2023-02-12T10:53:41.663Z,24.37
2023-02-12T10:56:10.845Z,29.37
2023-02-12T10:58:39.029Z,19.70
2023-02-12T11:01:12.614Z,20.70
2023-02-12T11:03:40.102Z,16.80
2023-02-12T11:06:13.674Z,19.60
2023-02-12T11:08:40.825Z,17.63
2023-02-12T11:11:11.654Z,27.27
2023-02-12T11:13:39.819Z,15.20
2023-02-12T11:16:06.671Z,17.40
2023-02-12T11:18:33.356Z,12.73
2023-02-12T11:20:59.731Z,13.23
2023-02-12T11:23:26.125Z,14.63
2023-02-12T11:26:03.062Z,14.17
2023-02-12T11:28:29.918Z,15.20
2023-02-12T11:31:00.899Z,13.23
2023-02-12T11:33:29.366Z,15.07
2023-02-12T11:35:57.469Z,19.93
2023-02-12T11:38:26.352Z,16.50
2023-02-12T11:40:56.318Z,13.97
2023-02-12T11:43:24.904Z,22.90
2023-02-12T11:45:53.397Z,13.37
2023-02-12T11:48:22.492Z,14.37
2023-02-12T11:50:50.811Z,16.67
2023-02-12T11:53:21.113Z,19.67
2023-02-12T11:55:54.297Z,17.52
2023-02-12T11:58:22.638Z,18.00
2023-02-12T12:01:04.157Z,15.52
2023-02-12T12:03:36.653Z,18.87
2023-02-12T12:06:07.028Z,20.40
2023-02-12T12:08:41.531Z,16.47
2023-02-12T12:11:12.935Z,19.05
2023-02-12T12:13:43.143Z,18.37
2023-02-12T12:16:31.088Z,22.20
2023-02-12T12:19:18.811Z,19.30
2023-02-12T12:21:58.771Z,17.57
2023-02-12T12:24:45.340Z,18.57
2023-02-12T12:27:39.417Z,21.37
2023-02-12T12:30:11.897Z,17.50
2023-02-12T12:32:39.559Z,18.83
2023-02-12T12:35:10.881Z,19.70
2023-02-12T12:37:43.370Z,20.33
2023-02-12T12:40:25.971Z,16.43
2023-02-12T12:43:07.368Z,22.70
2023-02-12T12:45:52.409Z,18.87
2023-02-12T12:48:21.841Z,18.33
2023-02-12T12:50:51.267Z,20.00
2023-02-12T12:53:24.766Z,17.02
2023-02-12T12:55:51.090Z,18.50
2023-02-12T12:58:20.484Z,16.17
2023-02-12T13:00:48.109Z,15.37
2023-02-12T13:03:34.034Z,15.80
2023-02-12T13:06:18.933Z,15.10
2023-02-12T13:09:04.571Z,17.85
2023-02-12T13:14:08.670Z,18.07
2023-02-12T13:16:46.120Z,19.53
2023-02-12T13:19:24.619Z,19.10
2023-02-12T13:21:57.006Z,19.30
2023-02-12T13:24:43.468Z,21.50
2023-02-12T13:27:16.100Z,19.65
2023-02-12T13:29:48.558Z,21.50
2023-02-12T13:32:26.947Z,20.15
2023-02-12T13:34:54.064Z,21.40
2023-02-12T13:37:37.893Z,18.40
2023-02-12T13:40:07.172Z,16.58
2023-02-12T13:42:33.532Z,21.67
2023-02-12T13:45:18.298Z,20.58
2023-02-12T13:48:03.189Z,20.05
2023-02-12T13:50:44.703Z,23.65
2023-02-12T13:53:18.280Z,16.70
2023-02-12T13:55:53.186Z,18.00
2023-02-12T13:58:31.920Z,19.10
2023-02-12T14:00:58.632Z,21.50
2023-02-12T14:03:25.693Z,19.53
2023-02-12T14:06:09.497Z,20.58
2023-02-12T14:08:37.575Z,20.30
2023-02-12T14:11:08.276Z,22.27
2023-02-12T14:13:45.684Z,22.07
2023-02-12T14:16:19.525Z,17.43
2023-02-12T14:18:46.984Z,20.13
2023-02-12T14:21:13.309Z,19.20
2023-02-12T14:23:42.193Z,17.57
2023-02-12T14:26:10.911Z,22.53
2023-02-12T14:28:47.669Z,21.57
2023-02-12T14:31:20.735Z,16.13
2023-02-12T14:34:15.292Z,19.48
2023-02-12T14:36:43.885Z,20.70
2023-02-12T14:39:19.152Z,19.53
2023-02-12T14:41:46.661Z,22.08
2023-02-12T14:44:23.297Z,25.03
2023-02-12T14:46:49.747Z,17.20
2023-02-12T14:49:21.402Z,22.50
2023-02-12T14:51:57.224Z,15.83
2023-02-12T14:54:35.719Z,17.53
2023-02-12T14:57:05.644Z,18.13
2023-02-12T14:59:33.555Z,23.08
2023-02-12T15:02:01.040Z,16.93
2023-02-12T15:04:29.000Z,24.05
2023-02-12T15:06:58.742Z,20.95
2023-02-12T15:09:35.708Z,20.40
2023-02-12T15:12:05.036Z,18.05
2023-02-12T15:14:32.325Z,19.23
2023-02-12T15:17:10.101Z,17.35
2023-02-12T15:19:43.052Z,18.73
2023-02-12T15:22:29.466Z,20.50
2023-02-12T15:25:14.342Z,21.85
2023-02-12T15:27:42.618Z,22.13
2023-02-12T15:30:25.676Z,18.15
2023-02-12T15:32:53.150Z,17.77
2023-02-12T15:35:28.140Z,21.08
2023-02-12T15:37:55.497Z,23.88
2023-02-12T15:40:22.338Z,28.08
2023-02-12T15:42:59.141Z,20.42
2023-02-12T15:45:25.545Z,22.23
2023-02-12T15:48:12.353Z,17.08
2023-02-12T15:50:51.522Z,22.60
2023-02-12T15:53:18.008Z,21.70
2023-02-12T15:55:47.672Z,22.75
2023-02-12T15:58:24.842Z,17.90
2023-02-12T16:00:51.698Z,18.25
2023-02-12T16:03:21.354Z,20.27
2023-02-12T16:05:48.512Z,21.17
2023-02-12T16:08:15.846Z,24.30
2023-02-12T16:10:48.021Z,21.63
2023-02-12T16:13:17.972Z,20.20
2023-02-12T16:15:44.390Z,20.80
2023-02-12T16:18:23.497Z,19.67
2023-02-12T16:20:50.115Z,19.77
2023-02-12T16:23:18.104Z,22.98
2023-02-12T16:25:45.752Z,20.73
2023-02-12T16:28:17.853Z,20.40
2023-02-12T16:30:45.019Z,24.58
2023-02-12T16:33:29.948Z,19.67
2023-02-12T16:36:12.046Z,27.23
2023-02-12T16:38:41.429Z,20.17
2023-02-12T16:41:19.962Z,19.23
2023-02-12T16:43:47.292Z,12.07
2023-02-12T16:46:14.342Z,9.02
2023-02-12T16:48:42.497Z,11.40
2023-02-12T16:51:27.406Z,7.20
2023-02-12T16:53:57.383Z,14.00
2023-02-12T16:56:24.924Z,13.23
2023-02-12T16:58:55.191Z,9.68
2023-02-12T17:01:26.312Z,7.38
2023-02-12T17:03:53.434Z,9.40
2023-02-12T17:06:20.909Z,9.30
2023-02-12T17:08:47.281Z,9.60
2023-02-12T17:11:15.309Z,14.93
2023-02-12T17:13:41.601Z,18.53
2023-02-12T17:16:08.108Z,17.57
2023-02-12T17:18:35.923Z,22.73
2023-02-12T17:21:04.844Z,17.67
2023-02-12T17:23:31.617Z,22.25
2023-02-12T17:25:58.198Z,15.23
2023-02-12T17:28:25.433Z,12.33
2023-02-12T17:30:52.774Z,15.03
2023-02-12T17:33:19.177Z,15.30
2023-02-12T17:35:45.707Z,18.13
2023-02-12T17:38:12.044Z,19.33
2023-02-12T17:40:38.795Z,19.43
2023-02-12T17:43:05.662Z,15.13
2023-02-12T17:45:32.339Z,18.17
2023-02-12T17:47:58.810Z,17.27
2023-02-12T17:50:25.129Z,16.57
2023-02-12T17:52:51.678Z,19.17
2023-02-12T17:55:17.994Z,14.30
2023-02-12T17:57:44.396Z,17.15
2023-02-12T18:00:11.894Z,15.63
2023-02-12T18:02:38.256Z,20.53
2023-02-12T18:05:04.756Z,17.70
2023-02-12T18:07:36.567Z,17.63
2023-02-12T18:10:05.199Z,19.90
2023-02-12T18:12:32.376Z,15.67
2023-02-12T18:14:59.153Z,18.87
2023-02-12T18:17:25.798Z,19.80
2023-02-12T18:19:52.691Z,17.73
2023-02-12T18:22:19.384Z,18.93
2023-02-12T18:24:45.701Z,17.17
2023-02-12T18:27:12.909Z,20.83
2023-02-12T18:29:39.526Z,21.87
2023-02-12T18:32:06.147Z,20.60
2023-02-12T18:34:32.892Z,21.17
2023-02-12T18:36:59.255Z,16.20
2023-02-12T18:39:25.619Z,25.13
2023-02-12T18:41:52.065Z,20.53
2023-02-12T18:44:18.396Z,21.60
2023-02-12T18:46:44.712Z,17.67
2023-02-12T18:49:11.741Z,18.90
2023-02-12T18:51:40.960Z,19.40
2023-02-12T18:54:08.252Z,21.13
2023-02-12T18:56:36.602Z,22.23
2023-02-12T18:59:04.785Z,14.07
2023-02-12T19:01:31.620Z,19.30
2023-02-12T19:04:00.132Z,22.83
2023-02-12T19:06:26.998Z,17.87
2023-02-12T19:08:57.340Z,21.57
2023-02-12T19:11:23.832Z,17.00
2023-02-12T19:13:50.370Z,24.63
2023-02-12T19:16:17.995Z,16.67
2023-02-12T19:18:44.445Z,20.63
2023-02-12T19:21:12.172Z,16.40
2023-02-12T19:23:38.895Z,19.17
2023-02-12T19:26:09.250Z,23.60
2023-02-12T19:28:35.822Z,20.73
2023-02-12T19:31:09.189Z,17.27
2023-02-12T19:33:37.046Z,18.93
2023-02-12T19:36:03.568Z,22.57
2023-02-12T19:38:30.057Z,22.07
2023-02-12T19:41:09.993Z,19.07
2023-02-12T19:43:36.404Z,20.63
2023-02-12T19:46:03.839Z,17.60
2023-02-12T19:48:30.363Z,19.13
2023-02-12T19:50:57.358Z,19.53
2023-02-12T19:53:24.496Z,21.33
2023-02-12T19:55:51.086Z,27.77
2023-02-12T19:58:17.518Z,22.63
2023-02-12T20:00:44.299Z,24.00
2023-02-12T20:03:10.727Z,17.23
2023-02-12T20:05:44.461Z,19.03
2023-02-12T20:08:10.822Z,34.03
2023-02-12T20:10:39.072Z,20.03
2023-02-12T20:13:05.397Z,34.73
2023-02-12T20:15:33.184Z,21.03
2023-02-12T20:17:59.552Z,22.17
2023-02-12T20:20:25.848Z,21.77
2023-02-12T20:22:52.603Z,20.60
2023-02-12T20:25:18.963Z,26.03
2023-02-12T20:27:45.319Z,27.87
2023-02-12T20:30:11.867Z,19.43
2023-02-12T20:32:38.313Z,23.00
2023-02-12T20:35:04.772Z,21.17
2023-02-12T20:37:31.219Z,21.30
2023-02-12T20:39:57.569Z,24.33
2023-02-12T20:42:23.898Z,18.93
2023-02-12T20:44:50.327Z,24.90
2023-02-12T20:47:16.688Z,22.00
2023-02-12T20:49:43.009Z,20.27
2023-02-12T20:52:09.637Z,23.17
2023-02-12T20:54:37.985Z,25.87
2023-02-12T20:57:06.738Z,17.77
2023-02-12T20:59:33.058Z,22.77
2023-02-12T21:01:59.488Z,27.00
2023-02-12T21:04:26.248Z,23.57
2023-02-12T21:06:53.086Z,21.23
2023-02-12T21:09:19.873Z,17.63
2023-02-12T21:11:46.352Z,24.63
2023-02-12T21:14:23.438Z,22.37
2023-02-12T21:16:51.088Z,30.80
2023-02-12T21:19:19.360Z,26.77
2023-02-12T21:21:45.898Z,27.23
2023-02-12T21:24:21.480Z,30.60
2023-02-12T21:26:48.061Z,24.93
2023-02-12T21:29:14.768Z,25.80
2023-02-12T21:31:42.741Z,24.13
2023-02-12T21:34:11.151Z,25.30
2023-02-12T21:36:38.737Z,27.43
2023-02-12T21:39:06.268Z,19.93
2023-02-12T21:41:35.537Z,22.97
2023-02-12T21:44:07.298Z,28.07
2023-02-12T21:46:34.104Z,24.00
2023-02-12T21:49:00.547Z,20.03
2023-02-12T21:51:26.889Z,28.83
2023-02-12T21:53:55.264Z,24.63
2023-02-12T21:56:21.837Z,28.90
2023-02-12T21:58:48.867Z,23.37
2023-02-12T22:01:16.798Z,31.03
2023-02-12T22:03:46.094Z,26.37
2023-02-12T22:06:13.651Z,22.73
2023-02-12T22:08:40.405Z,21.37
2023-02-12T22:11:07.977Z,32.00
2023-02-12T22:13:34.829Z,24.90
2023-02-12T22:16:11.063Z,28.60
2023-02-12T22:18:37.574Z,22.57
2023-02-12T22:21:05.076Z,25.30
2023-02-12T22:23:31.982Z,27.00
2023-02-12T22:26:24.925Z,26.73
2023-02-12T22:28:55.631Z,27.43
2023-02-12T22:31:24.027Z,26.60
2023-02-12T22:33:51.100Z,21.07
2023-02-12T22:36:18.008Z,26.03
2023-02-12T22:38:44.413Z,31.33
2023-02-12T22:41:10.960Z,26.90
2023-02-12T22:43:38.417Z,29.70
2023-02-12T22:46:05.182Z,26.20
2023-02-12T22:48:31.684Z,27.03
2023-02-12T22:50:58.645Z,27.47
2023-02-12T22:53:25.913Z,23.70
2023-02-12T22:55:52.824Z,31.30
2023-02-12T22:58:19.342Z,24.33
2023-02-12T23:00:45.789Z,30.17
2023-02-12T23:03:12.234Z,31.00
2023-02-12T23:05:39.077Z,25.13
2023-02-12T23:08:05.912Z,22.40
2023-02-12T23:10:32.639Z,28.70
2023-02-12T23:12:59.020Z,29.30
2023-02-12T23:15:25.335Z,26.20
2023-02-12T23:17:51.670Z,28.43
2023-02-12T23:20:18.059Z,21.40
2023-02-12T23:22:44.529Z,22.80
2023-02-12T23:25:10.953Z,27.53
2023-02-12T23:27:37.310Z,23.47
2023-02-12T23:30:04.043Z,27.30
2023-02-12T23:32:30.376Z,25.23
2023-02-12T23:34:56.791Z,26.10
2023-02-12T23:37:23.806Z,23.70
2023-02-12T23:39:50.135Z,29.40
2023-02-12T23:42:16.472Z,28.40
2023-02-12T23:44:42.786Z,24.80
2023-02-12T23:47:09.151Z,30.47
2023-02-12T23:49:36.942Z,22.60
2023-02-12T23:52:03.496Z,27.97
2023-02-12T23:54:31.581Z,27.00
2023-02-12T23:56:57.900Z,30.27
2023-02-12T23:59:24.898Z,23.23
